createdAt,value
2022-11-05T00:05:12.362Z,99873.19
2022-11-05T00:10:26.112Z,99883.69
2022-11-05T00:15:46.243Z,99883.13
2022-11-05T00:20:47.515Z,99884.41
2022-11-05T00:26:00.375Z,99893.81
2022-11-05T00:31:06.934Z,99898.84
2022-11-05T00:36:10.685Z,99902.63
2022-11-05T00:41:11.990Z,99919.47
2022-11-05T00:46:13.372Z,99912.75
2022-11-05T00:51:14.718Z,99920.47
2022-11-05T00:56:16.004Z,99925.53
2022-11-05T01:01:17.469Z,99926.94
2022-11-05T01:06:19.002Z,99934.09
2022-11-05T01:11:36.963Z,99941.84
2022-11-05T01:16:39.808Z,99951.50
2022-11-05T01:21:41.153Z,99945.94
2022-11-05T01:26:42.544Z,99952.75
2022-11-05T01:31:43.868Z,99945.47
2022-11-05T01:36:45.215Z,99945.31
2022-11-05T01:41:46.604Z,99956.81
2022-11-05T01:46:47.915Z,99960.19
2022-11-05T01:51:51.231Z,99955.81
2022-11-05T01:56:59.683Z,99970.13
2022-11-05T02:02:03.399Z,99978.97
2022-11-05T02:07:07.552Z,99975.19
2022-11-05T02:12:10.667Z,99979.41
2022-11-05T02:17:21.534Z,99979.69
2022-11-05T02:23:05.079Z,99984.19
2022-11-05T02:28:42.677Z,99984.75
2022-11-05T02:33:56.705Z,99992.31
2022-11-05T02:39:27.014Z,99985.84
2022-11-05T02:44:47.108Z,99992.00
2022-11-05T02:49:57.324Z,99990.50
2022-11-05T02:55:13.963Z,99998.50
2022-11-05T03:00:43.402Z,100009.16
2022-11-05T03:05:58.599Z,100015.78
2022-11-05T03:11:16.503Z,100024.59
2022-11-05T03:16:43.031Z,100026.25
2022-11-05T03:21:58.843Z,100029.47
2022-11-05T03:27:08.743Z,100030.44
2022-11-05T03:32:12.277Z,100034.25
2022-11-05T03:37:16.769Z,100041.44
2022-11-05T03:42:19.734Z,100043.69
2022-11-05T03:47:28.135Z,100049.72
2022-11-05T03:52:36.310Z,100056.56
2022-11-05T03:57:41.247Z,100057.78
2022-11-05T04:02:42.693Z,100061.88
2022-11-05T04:08:03.393Z,100068.66
2022-11-05T04:13:25.758Z,100066.94
2022-11-05T04:18:27.153Z,100073.56
2022-11-05T04:23:47.073Z,100084.03
2022-11-05T04:29:11.282Z,100082.78
2022-11-05T04:34:12.646Z,100085.47
2022-11-05T04:39:13.932Z,100096.38
2022-11-05T04:44:15.961Z,100099.72
2022-11-05T04:49:17.254Z,100103.22
2022-11-05T04:54:18.622Z,100106.78
2022-11-05T04:59:19.915Z,100114.59
2022-11-05T05:04:21.235Z,100110.13
2022-11-05T05:09:22.543Z,100109.25
2022-11-05T05:14:23.845Z,100115.97
2022-11-05T05:19:25.747Z,100121.31
2022-11-05T05:24:27.066Z,100123.75
2022-11-05T05:29:28.362Z,100122.84
2022-11-05T05:34:29.674Z,100122.84
2022-11-05T05:39:31.048Z,100132.31
2022-11-05T05:44:32.339Z,100141.78
2022-11-05T05:49:33.701Z,100154.41
2022-11-05T05:54:39.744Z,100163.34
2022-11-05T05:59:43.691Z,100170.69
2022-11-05T06:04:45.333Z,100175.06
2022-11-05T06:09:46.727Z,100179.09
2022-11-05T06:14:48.068Z,100181.34
2022-11-05T06:19:49.379Z,100196.69
2022-11-05T06:24:50.652Z,100200.34
2022-11-05T06:29:51.975Z,100206.84
2022-11-05T06:34:53.367Z,100214.56
2022-11-05T06:39:57.002Z,100212.38
2022-11-05T06:44:58.375Z,100218.81
2022-11-05T06:49:59.731Z,100228.81
2022-11-05T06:55:02.361Z,100222.34
2022-11-05T07:00:07.854Z,100237.41
2022-11-05T07:05:11.139Z,100249.06
2022-11-05T07:10:15.233Z,100261.56
2022-11-05T07:15:16.650Z,100267.41
2022-11-05T07:20:18.047Z,100273.44
2022-11-05T07:25:19.460Z,100286.31
2022-11-05T07:30:20.755Z,100289.44
2022-11-05T07:35:23.002Z,100299.59
2022-11-05T07:40:26.468Z,100305.66
2022-11-05T07:45:30.212Z,100320.38
2022-11-05T07:50:34.273Z,100327.47
2022-11-05T07:55:35.761Z,100325.56
2022-11-05T08:00:37.637Z,100328.97
2022-11-05T08:05:41.114Z,100337.97
2022-11-05T08:10:43.044Z,100344.50
2022-11-05T08:15:44.927Z,100350.66
2022-11-05T08:20:47.573Z,100353.66
2022-11-05T08:25:48.890Z,100358.78
2022-11-05T08:30:51.977Z,100360.38
2022-11-05T08:35:53.551Z,100374.63
2022-11-05T08:40:57.479Z,100368.47
2022-11-05T08:46:00.899Z,100374.06
2022-11-05T08:51:02.187Z,100383.31
2022-11-05T08:56:03.654Z,100386.47
2022-11-05T09:01:05.760Z,100390.09
2022-11-05T09:06:07.563Z,100383.72
2022-11-05T09:11:08.919Z,100385.91
2022-11-05T09:16:22.407Z,100389.47
2022-11-05T09:21:23.758Z,100375.56
2022-11-05T09:26:25.058Z,100392.72
2022-11-05T09:31:26.387Z,100394.31
2022-11-05T09:36:27.821Z,100391.66
2022-11-05T09:41:36.998Z,100405.75
2022-11-05T09:46:55.880Z,100420.19
2022-11-05T09:51:58.789Z,100420.81
2022-11-05T09:57:02.197Z,100426.41
2022-11-05T10:02:17.045Z,100432.19
2022-11-05T10:07:22.840Z,100428.69
2022-11-05T10:12:36.116Z,100436.13
2022-11-05T10:17:40.722Z,100446.00
2022-11-05T10:22:46.604Z,100437.38
2022-11-05T10:27:54.436Z,100426.06
2022-11-05T10:32:59.777Z,100422.09
2022-11-05T10:38:01.721Z,100430.56
2022-11-05T10:43:14.914Z,100438.22
2022-11-05T10:48:46.280Z,100439.97
2022-11-05T10:54:00.340Z,100440.72
2022-11-05T10:59:11.928Z,100434.63
2022-11-05T11:04:20.332Z,100446.22
2022-11-05T11:09:35.540Z,100433.97
2022-11-05T11:14:36.848Z,100427.25
2022-11-05T11:19:38.567Z,100429.88
2022-11-05T11:24:45.644Z,100439.22
2022-11-05T11:29:56.110Z,100424.47
2022-11-05T11:34:58.331Z,100420.22
2022-11-05T11:40:13.406Z,100416.00
2022-11-05T11:45:27.342Z,100413.84
2022-11-05T11:50:31.371Z,100412.56
2022-11-05T11:55:32.689Z,100405.81
2022-11-05T12:00:44.514Z,100404.28
2022-11-05T12:05:54.719Z,100397.72
2022-11-05T12:11:08.330Z,100392.84
2022-11-05T12:16:22.546Z,100388.34
2022-11-05T12:21:52.545Z,100398.72
2022-11-05T12:27:21.415Z,100384.97
2022-11-05T12:32:55.585Z,100383.53
2022-11-05T12:38:21.755Z,100374.63
2022-11-05T12:43:32.038Z,100373.13
2022-11-05T12:48:57.129Z,100369.94
2022-11-05T12:54:32.569Z,100384.84
2022-11-05T12:59:40.087Z,100379.38
2022-11-05T13:04:46.034Z,100378.78
2022-11-05T13:09:55.326Z,100385.22
2022-11-05T13:15:00.883Z,100395.66
2022-11-05T13:20:17.170Z,100395.78
2022-11-05T13:25:25.495Z,100393.59
2022-11-05T13:30:34.553Z,100398.03
2022-11-05T13:36:25.236Z,100403.81
2022-11-05T13:41:45.438Z,100407.03
2022-11-05T13:47:11.908Z,100407.81
2022-11-05T13:52:13.167Z,100408.84
2022-11-05T13:57:31.911Z,100406.34
2022-11-05T14:02:42.043Z,100416.88
2022-11-05T14:07:47.550Z,100411.84
2022-11-05T14:12:55.433Z,100408.97
2022-11-05T14:18:01.327Z,100406.13
2022-11-05T14:23:21.113Z,100410.47
2022-11-05T14:28:34.529Z,100411.63
2022-11-05T14:33:39.664Z,100409.41
2022-11-05T14:38:49.881Z,100401.63
2022-11-05T14:43:58.623Z,100411.09
2022-11-05T14:49:09.083Z,100410.69
2022-11-05T14:54:27.769Z,100414.69
2022-11-05T14:59:29.048Z,100411.72
2022-11-05T15:04:49.217Z,100415.09
2022-11-05T15:10:03.204Z,100421.06
2022-11-05T15:15:22.276Z,100424.31
2022-11-05T15:20:46.075Z,100430.28
2022-11-05T15:26:09.060Z,100418.72
2022-11-05T15:31:13.566Z,100430.19
2022-11-05T15:36:24.941Z,100419.78
2022-11-05T15:41:31.899Z,100427.44
2022-11-05T15:46:33.364Z,100423.50
2022-11-05T15:51:36.006Z,100428.94
2022-11-05T15:56:48.211Z,100427.53
2022-11-05T16:01:56.780Z,100434.22
2022-11-05T16:07:01.551Z,100425.59
2022-11-05T16:12:27.165Z,100430.91
2022-11-05T16:17:39.523Z,100431.84
2022-11-05T16:22:49.050Z,100436.00
2022-11-05T16:27:50.484Z,100437.28
2022-11-05T16:32:52.953Z,100435.66
2022-11-05T16:37:54.319Z,100438.66
2022-11-05T16:43:08.500Z,100432.72
2022-11-05T16:48:12.726Z,100448.22
2022-11-05T16:53:14.513Z,100463.28
2022-11-05T16:58:25.085Z,100472.34
2022-11-05T17:03:26.420Z,100484.94
2022-11-05T17:08:27.919Z,100494.22
2022-11-05T17:13:29.224Z,100503.09
2022-11-05T17:18:30.703Z,100514.94
2022-11-05T17:23:34.307Z,100521.00
2022-11-05T17:28:35.824Z,100512.50
2022-11-05T17:33:37.190Z,100517.38
2022-11-05T17:38:38.655Z,100511.06
2022-11-05T17:43:40.020Z,100518.78
2022-11-05T17:48:41.598Z,100525.28
2022-11-05T17:53:44.637Z,100524.84
2022-11-05T17:58:45.944Z,100527.44
2022-11-05T18:03:47.243Z,100532.38
2022-11-05T18:08:48.848Z,100538.66
2022-11-05T18:13:50.311Z,100545.09
2022-11-05T18:18:51.734Z,100540.72
2022-11-05T18:23:53.107Z,100562.34
2022-11-05T18:28:54.460Z,100561.28
2022-11-05T18:33:58.649Z,100574.06
2022-11-05T18:39:02.762Z,100568.22
2022-11-05T18:44:05.094Z,100574.81
2022-11-05T18:49:07.052Z,100573.69
2022-11-05T18:54:08.814Z,100564.47
2022-11-05T18:59:35.074Z,100568.75
2022-11-05T19:04:32.072Z,100569.34
2022-11-05T19:09:34.439Z,100568.72
2022-11-05T19:14:36.029Z,100577.56
2022-11-05T19:19:37.567Z,100566.94
2022-11-05T19:24:38.867Z,100569.28
2022-11-05T19:29:40.172Z,100571.44
2022-11-05T19:34:41.567Z,100559.63
2022-11-05T19:39:43.168Z,100564.63
2022-11-05T19:44:44.495Z,100559.09
2022-11-05T19:49:45.816Z,100555.47
2022-11-05T19:54:47.174Z,100556.97
2022-11-05T19:59:50.392Z,100559.06
2022-11-05T20:04:51.751Z,100561.53
2022-11-05T20:09:53.088Z,100566.34
2022-11-05T20:14:54.464Z,100559.13
2022-11-05T20:19:56.183Z,100566.38
2022-11-05T20:24:57.504Z,100576.34
2022-11-05T20:29:58.799Z,100577.84
2022-11-05T20:35:00.082Z,100570.94
2022-11-05T20:40:01.445Z,100570.84
2022-11-05T20:45:02.821Z,100569.53
2022-11-05T20:50:05.183Z,100573.06
2022-11-05T20:55:09.089Z,100574.03
2022-11-05T21:00:11.626Z,100575.94
2022-11-05T21:05:12.990Z,100572.53
2022-11-05T21:10:14.324Z,100572.75
2022-11-05T21:15:20.109Z,100569.53
2022-11-05T21:20:21.467Z,100582.84
2022-11-05T21:25:22.747Z,100579.09
2022-11-05T21:30:24.110Z,100576.13
2022-11-05T21:35:25.515Z,100570.38
2022-11-05T21:40:26.839Z,100564.78
2022-11-05T21:45:28.132Z,100561.88
2022-11-05T21:50:47.754Z,100570.72
2022-11-05T21:56:07.695Z,100565.28
2022-11-05T22:01:09.104Z,100573.03
2022-11-05T22:06:10.781Z,100568.72
2022-11-05T22:11:12.088Z,100573.03
2022-11-05T22:16:13.392Z,100564.97
2022-11-05T22:21:18.733Z,100575.59
2022-11-05T22:26:20.106Z,100580.47
2022-11-05T22:31:22.013Z,100580.91
2022-11-05T22:36:23.412Z,100591.63
2022-11-05T22:41:24.809Z,100583.88
2022-11-05T22:46:27.074Z,100573.47
2022-11-05T22:51:33.512Z,100567.94
2022-11-05T22:56:39.386Z,100575.38
2022-11-05T23:01:41.633Z,100574.75
2022-11-05T23:07:01.464Z,100579.44
2022-11-05T23:12:06.188Z,100587.19
2022-11-05T23:17:27.227Z,100575.09
2022-11-05T23:22:49.654Z,100559.81
2022-11-05T23:27:53.216Z,100561.91
2022-11-05T23:32:55.731Z,100548.84
2022-11-05T23:38:15.771Z,100549.59
2022-11-05T23:43:36.016Z,100549.81
2022-11-05T23:48:37.776Z,100538.97
2022-11-05T23:53:40.775Z,100540.34
2022-11-05T23:58:42.532Z,100539.59
